Terminal Aerodrome Forecast
Issued by NWS Sioux Falls, SD

Home | Current Version | Previous Version | Graphics & Text | Print | Product List | Glossary On
Versions: 1 2 3 4 5 6 7 8 9 10 11 12 13 14 15 16 17 18 19 20 21 22 23 24 25 26 27 28 29 30 31 32 33 34
000
FTUS43 KFSD 051136
TAFSUX
TAF
KSUX 051136Z 0512/0612 13008KT P6SM SCT120 WS009/19040KT
     FM051300 16010KT P6SM SCT080
      TEMPO 0513/0515 6SM TSRA SCT060 OVC100CB
     FM051600 17014G21KT P6SM SKC
     FM052000 17018G26KT P6SM FEW040
     FM060100 15014G20KT P6SM SCT040 SCT120
     FM061000 21015KT 4SM TSRA SCT020CB OVC040=

USA.gov is the U.S. government's official web portal to all federal, state and local government web resources and services.